Close

Questo sito utlizza cookie. Può leggere come li usiamo nella nostra Privacy Policy.

Ronchi Tower
Ronchi Tower

From Facebook

METAR & TAF

2020/04/06 03:50 LIPQ 060350Z AUTO 35003KT 9999 NCD 09/01 Q1025
2020/04/05 18:21 TAF LIPQ 051700Z 0518/0618 05007KT CAVOK
2020/04/08 10:50 LIPZ 081050Z 10012KT CAVOK 20/M05 Q1026 NOSIG
2020/04/08 06:21 TAF LIPZ 080500Z 0806/0912 VRB04KT CAVOK BECMG 0807/0809 07010KT BECMG 0816/0818 VRB05KT
2020/04/05 20:50 LIPH 052050Z 03005KT CAVOK 15/M00 Q1025
2020/04/05 18:21 TAF LIPH 051700Z 0518/0618 VRB05KT CAVOK BECMG 0608/0610 07010KT
2020/04/08 10:50 LIRF 081050Z 20010KT CAVOK 19/03 Q1025 NOSIG
2020/04/08 06:22 TAF LIRF 080500Z 0806/0912 VRB04KT CAVOK BECMG 0808/0810 25010KT BECMG 0818/0820 VRB05KT BECMG 0909/0911 26010KT
2020/04/08 10:50 LIML 081050Z 17003KT 100V250 CAVOK 19/M01 Q1027 NOSIG
2020/04/08 06:21 TAF LIML 080500Z 0806/0906 VRB05KT CAVOK
2020/04/08 10:50 EDDM 081050Z 25005KT 210V300 CAVOK 18/04 Q1025 NOSIG
2020/04/08 06:27 TAF EDDM 080500Z 0806/0912 07004KT CAVOK BECMG 0908/0910 30005KT
2020/04/08 10:50 EGSS 081050Z AUTO 09006KT 060V140 9999 NCD 19/08 Q1025
2020/04/08 06:09 TAF EGSS 080503Z 0806/0912 05005KT 9999 FEW045 PROB30 TEMPO 0813/0819 7000 SHRA BECMG 0822/0824 8000 PROB30 0902/0906 4000 BR BECMG 0906/0908 9999
2020/04/08 10:50 EDDF 081050Z VRB03KT CAVOK 21/04 Q1025 NOSIG
2020/04/08 06:28 TAF EDDF 080500Z 0806/0912 04006KT CAVOK BECMG 0818/0821 VRB03KT BECMG 0907/0909 27005KT

FlightRadar24

Radar Meteo

Traffic data

Agosto 2018

Passeggeri: 63892-12,9% (rank: 23)
Nazionali 34490 -19,8%
Internazionali 29193 -3,0%

Movimenti: 1307+11,7% (rank: 24)
Tot commerciale 556 -7,2%
Aviazione generale 751 +31,5%

Cargo (tons): 20,6+62,5% (rank: 21)

Gennaio - Agosto 2018

Passeggeri: 507438-3,5% (rank: 23)
Nazionali 322655 -4,9%
Internazionali 182927 -0,7%

Movimenti: 10366-4,25 (rank: 22)
Tot commerciale 5328 -11,0%
Aviazione generale 5038 +4,2%

Cargo (tons): 299,2+61,9% (rank: 20)

Photo

Douglas DC-6B
Douglas DC-6B
Distinct views: 12
Douglas DC-6B
Douglas DC-6B
Distinct views: 62
Douglas DC-6B
Douglas DC-6B
Distinct views: 208
Piper PA-32 Saratoga
Piper PA-32 Saratoga
Total views: 792